createdAt,value
2019-04-04T00:00:36.966Z,9.70
2019-04-04T00:02:43.702Z,9.67
2019-04-04T00:04:52.324Z,9.68
2019-04-04T00:06:58.899Z,9.65
2019-04-04T00:09:10.364Z,9.65
2019-04-04T00:11:17.067Z,9.63
2019-04-04T00:13:24.169Z,9.64
2019-04-04T00:15:31.282Z,9.65
2019-04-04T00:17:38.301Z,9.72
2019-04-04T00:19:45.155Z,9.71
2019-04-04T00:21:53.252Z,9.76
2019-04-04T00:24:00.049Z,9.84
2019-04-04T00:26:10.881Z,9.84
2019-04-04T00:28:17.781Z,9.83
2019-04-04T00:30:24.793Z,9.78
2019-04-04T00:32:31.610Z,9.80
2019-04-04T00:34:38.394Z,9.79
2019-04-04T00:36:44.846Z,9.78
2019-04-04T00:38:52.025Z,9.79
2019-04-04T00:40:58.565Z,9.80
2019-04-04T00:43:05.904Z,9.80
2019-04-04T00:45:14.677Z,9.79
2019-04-04T00:47:21.799Z,9.74
2019-04-04T00:49:28.679Z,9.77
2019-04-04T00:51:39.136Z,9.79
2019-04-04T00:53:45.939Z,9.78
2019-04-04T00:55:53.119Z,9.78
2019-04-04T00:58:00.269Z,9.78
2019-04-04T01:00:10.064Z,9.77
2019-04-04T01:02:18.640Z,9.74
2019-04-04T01:04:25.690Z,9.73
2019-04-04T01:06:33.747Z,9.71
2019-04-04T01:08:41.196Z,9.68
2019-04-04T01:10:49.789Z,9.62
2019-04-04T01:12:57.637Z,9.59
2019-04-04T01:15:04.790Z,9.59
2019-04-04T01:17:12.052Z,9.55
2019-04-04T01:19:18.857Z,9.56
2019-04-04T01:21:25.856Z,9.52
2019-04-04T01:23:32.626Z,9.50
2019-04-04T01:25:39.879Z,9.48
2019-04-04T01:27:49.133Z,9.45
2019-04-04T01:29:58.158Z,9.44
2019-04-04T01:32:04.774Z,9.49
2019-04-04T01:34:12.092Z,9.49
2019-04-04T01:36:19.284Z,9.48
2019-04-04T01:38:27.093Z,9.46
2019-04-04T01:40:36.225Z,9.45
2019-04-04T01:42:42.852Z,9.38
2019-04-04T01:44:50.798Z,9.32
2019-04-04T01:46:57.822Z,9.27
2019-04-04T01:49:05.908Z,9.22
2019-04-04T01:51:13.081Z,9.14
2019-04-04T01:53:22.732Z,9.15
2019-04-04T01:55:29.963Z,9.09
2019-04-04T01:57:38.624Z,9.02
2019-04-04T01:59:45.439Z,9.02
2019-04-04T02:01:52.336Z,9.01
2019-04-04T02:03:59.616Z,9.03
2019-04-04T02:06:06.597Z,8.97
2019-04-04T02:08:13.753Z,8.98
2019-04-04T02:10:20.437Z,8.99
2019-04-04T02:12:28.919Z,8.95
2019-04-04T02:14:37.168Z,8.93
2019-04-04T02:16:47.522Z,8.90
2019-04-04T02:18:53.830Z,8.85
2019-04-04T02:21:01.156Z,8.86
2019-04-04T02:23:08.181Z,8.79
2019-04-04T02:25:14.994Z,8.78
2019-04-04T02:27:21.955Z,8.75
2019-04-04T02:29:29.694Z,8.70
2019-04-04T02:31:37.782Z,8.68
2019-04-04T02:33:48.705Z,8.62
2019-04-04T02:35:55.203Z,8.59
2019-04-04T02:38:02.348Z,8.57
2019-04-04T02:40:30.143Z,8.54
2019-04-04T02:42:37.527Z,8.52
2019-04-04T02:44:47.398Z,8.47
2019-04-04T02:46:54.377Z,8.44
2019-04-04T02:49:01.151Z,8.46
2019-04-04T02:51:08.406Z,8.42
2019-04-04T02:53:19.409Z,8.35
2019-04-04T02:55:24.075Z,8.31
2019-04-04T02:57:31.064Z,8.29
2019-04-04T02:59:38.012Z,8.28
2019-04-04T03:01:45.843Z,8.24
2019-04-04T03:03:53.019Z,8.24
2019-04-04T03:06:00.531Z,8.21
2019-04-04T03:08:07.496Z,8.18
2019-04-04T03:10:16.329Z,8.16
2019-04-04T03:12:25.698Z,8.17
2019-04-04T03:14:36.114Z,8.16
2019-04-04T03:16:41.619Z,8.13
2019-04-04T03:18:48.813Z,8.10
2019-04-04T03:20:56.367Z,8.10
2019-04-04T03:23:03.163Z,8.07
2019-04-04T03:25:14.247Z,8.03
2019-04-04T03:27:18.553Z,7.98
2019-04-04T03:29:25.697Z,7.98
2019-04-04T03:31:37.354Z,7.98
2019-04-04T03:33:42.676Z,7.98
2019-04-04T03:35:49.157Z,7.97
2019-04-04T03:37:56.904Z,7.94
2019-04-04T03:40:03.505Z,7.94
2019-04-04T03:42:11.911Z,7.92
2019-04-04T03:44:20.629Z,7.88
2019-04-04T03:46:27.600Z,7.86
2019-04-04T03:48:34.492Z,7.85
2019-04-04T03:50:40.990Z,7.81
2019-04-04T03:52:47.758Z,7.78
2019-04-04T03:54:56.372Z,7.71
2019-04-04T03:57:03.332Z,7.74
2019-04-04T03:59:10.454Z,7.69
2019-04-04T04:01:17.145Z,7.71
2019-04-04T04:03:25.251Z,7.64
2019-04-04T04:05:35.720Z,7.61
2019-04-04T04:07:41.489Z,7.55
2019-04-04T04:09:49.912Z,7.53
2019-04-04T04:11:56.568Z,7.55
2019-04-04T04:14:04.008Z,7.57
2019-04-04T04:16:10.962Z,7.57
2019-04-04T04:18:21.353Z,7.51
2019-04-04T04:20:26.453Z,7.45
2019-04-04T04:22:34.344Z,7.39
2019-04-04T04:24:42.054Z,7.37
2019-04-04T04:26:50.052Z,7.33
2019-04-04T04:28:56.874Z,7.35
2019-04-04T04:31:03.249Z,7.28
2019-04-04T04:33:10.836Z,7.28
2019-04-04T04:35:18.229Z,7.29
2019-04-04T04:37:25.027Z,7.28
2019-04-04T04:39:35.902Z,7.26
2019-04-04T04:41:39.902Z,7.26
2019-04-04T04:43:47.308Z,7.24
2019-04-04T04:45:54.870Z,7.25
2019-04-04T04:48:01.846Z,7.26
2019-04-04T04:50:09.854Z,7.27
2019-04-04T04:52:18.891Z,7.32
2019-04-04T04:54:26.172Z,7.35
2019-04-04T04:56:33.568Z,7.32
2019-04-04T04:58:42.148Z,7.36
2019-04-04T05:00:48.791Z,7.41
2019-04-04T05:02:55.661Z,7.44
2019-04-04T05:05:02.860Z,7.46
2019-04-04T05:07:10.099Z,7.46
2019-04-04T05:09:18.799Z,7.50
2019-04-04T05:11:29.350Z,7.52
2019-04-04T05:13:36.407Z,7.49
2019-04-04T05:15:43.368Z,7.50
2019-04-04T05:17:50.611Z,7.53
2019-04-04T05:19:57.656Z,7.60
2019-04-04T05:22:05.136Z,7.64
2019-04-04T05:24:12.310Z,7.62
2019-04-04T05:26:19.139Z,7.65
2019-04-04T05:28:26.319Z,7.70
2019-04-04T05:30:33.079Z,7.75
2019-04-04T05:32:39.696Z,7.79
2019-04-04T05:34:48.156Z,7.88
2019-04-04T05:36:58.461Z,7.92
2019-04-04T05:39:08.818Z,7.96
2019-04-04T05:41:16.622Z,8.09
2019-04-04T05:43:23.343Z,8.21
2019-04-04T05:45:31.328Z,8.12
2019-04-04T05:47:38.411Z,8.18
2019-04-04T05:49:44.887Z,8.22
2019-04-04T05:51:51.804Z,8.21
2019-04-04T05:53:58.642Z,8.22
2019-04-04T05:56:06.509Z,8.22
2019-04-04T05:58:13.413Z,8.20
2019-04-04T06:00:20.405Z,8.28
2019-04-04T06:02:27.213Z,8.62
2019-04-04T06:04:34.203Z,8.60
2019-04-04T06:06:41.220Z,8.60
2019-04-04T06:08:48.157Z,8.73
2019-04-04T06:10:54.804Z,8.68
2019-04-04T06:13:01.614Z,8.72
2019-04-04T06:15:09.458Z,8.70
2019-04-04T06:17:17.875Z,8.74
2019-04-04T06:19:24.592Z,8.79
2019-04-04T06:21:31.548Z,8.73
2019-04-04T06:23:38.220Z,8.85
2019-04-04T06:25:46.329Z,8.91
2019-04-04T06:27:53.268Z,8.84
2019-04-04T06:30:00.285Z,8.96
2019-04-04T06:32:07.502Z,9.03
2019-04-04T06:34:15.209Z,9.03
2019-04-04T06:36:22.263Z,9.01
2019-04-04T06:38:29.214Z,9.03
2019-04-04T06:40:35.987Z,9.06
2019-04-04T06:42:43.397Z,9.06
2019-04-04T06:44:50.083Z,9.35
2019-04-04T06:46:57.053Z,9.53
2019-04-04T06:49:04.395Z,9.59
2019-04-04T06:51:14.285Z,9.65
2019-04-04T06:53:22.291Z,9.69
2019-04-04T06:55:29.618Z,9.55
2019-04-04T06:57:37.337Z,9.60
2019-04-04T06:59:44.629Z,9.70
2019-04-04T07:01:53.311Z,9.78
2019-04-04T07:04:00.307Z,9.80
2019-04-04T07:06:08.086Z,9.76
2019-04-04T07:08:16.250Z,9.82
2019-04-04T07:10:23.196Z,9.77
2019-04-04T07:12:29.829Z,9.89
2019-04-04T07:14:45.513Z,9.98
2019-04-04T07:16:45.180Z,9.95
2019-04-04T07:18:52.072Z,10.09
2019-04-04T07:20:59.056Z,10.26
2019-04-04T07:23:06.084Z,10.14
2019-04-04T07:25:13.168Z,10.17
2019-04-04T07:27:20.493Z,10.18
2019-04-04T07:29:27.278Z,10.36
2019-04-04T07:31:38.298Z,10.47
2019-04-04T07:33:44.042Z,10.45
2019-04-04T07:35:51.543Z,10.55
2019-04-04T07:37:59.297Z,10.65
2019-04-04T07:40:08.322Z,10.66
2019-04-04T07:42:15.875Z,10.65
2019-04-04T07:44:23.873Z,10.71
2019-04-04T07:46:31.015Z,10.73
2019-04-04T07:48:37.897Z,10.91
2019-04-04T07:50:44.747Z,11.07
2019-04-04T07:52:52.505Z,11.17
2019-04-04T07:54:59.335Z,11.32
2019-04-04T07:57:08.399Z,11.42
2019-04-04T07:59:15.366Z,11.66
2019-04-04T08:01:22.064Z,11.71
2019-04-04T08:03:29.265Z,11.75
2019-04-04T08:05:36.157Z,11.89
2019-04-04T08:07:44.544Z,11.87
2019-04-04T08:09:53.167Z,11.69
2019-04-04T08:11:59.682Z,11.70
2019-04-04T08:14:06.795Z,11.62
2019-04-04T08:16:14.902Z,11.66
2019-04-04T08:18:21.625Z,11.69
2019-04-04T08:20:28.701Z,11.69
2019-04-04T08:22:35.468Z,11.75
2019-04-04T08:24:44.196Z,11.89
2019-04-04T08:26:50.866Z,11.94
2019-04-04T08:28:59.475Z,12.11
2019-04-04T08:31:06.565Z,12.18
2019-04-04T08:33:13.325Z,12.25
2019-04-04T08:35:20.384Z,12.23
2019-04-04T08:37:28.025Z,12.40
2019-04-04T08:39:36.101Z,12.68
2019-04-04T08:41:43.496Z,12.87
2019-04-04T08:43:50.072Z,12.92
2019-04-04T08:45:56.728Z,12.85
2019-04-04T08:48:03.609Z,12.92
2019-04-04T08:50:12.465Z,12.93
2019-04-04T08:52:20.758Z,12.90
2019-04-04T08:54:28.029Z,12.97
2019-04-04T08:58:51.544Z,13.17
2019-04-04T09:00:57.769Z,13.18
2019-04-04T09:03:04.829Z,13.38
2019-04-04T09:05:12.777Z,13.43
2019-04-04T09:07:21.482Z,13.40
2019-04-04T09:09:28.417Z,13.43
2019-04-04T09:11:38.913Z,13.42
2019-04-04T09:13:45.631Z,13.49
2019-04-04T09:15:52.679Z,13.53
2019-04-04T09:18:00.804Z,13.62
2019-04-04T09:20:11.691Z,13.68
2019-04-04T09:22:18.493Z,13.82
2019-04-04T09:24:25.286Z,13.88
2019-04-04T09:26:32.203Z,14.00
2019-04-04T09:28:40.375Z,14.08
2019-04-04T09:30:53.378Z,14.17
2019-04-04T09:33:01.683Z,14.27
2019-04-04T09:35:10.427Z,14.26
2019-04-04T09:37:17.145Z,14.35
2019-04-04T09:39:24.560Z,14.55
2019-04-04T09:41:31.717Z,14.68
2019-04-04T09:43:38.998Z,14.80
2019-04-04T09:45:45.932Z,14.89
2019-04-04T09:47:56.572Z,14.95
2019-04-04T09:50:03.727Z,15.04
2019-04-04T09:52:13.191Z,15.09
2019-04-04T09:54:19.884Z,15.13
2019-04-04T09:56:27.128Z,15.19
2019-04-04T09:58:33.757Z,15.25
2019-04-04T10:00:41.250Z,15.25
2019-04-04T10:02:48.202Z,15.25
2019-04-04T10:04:55.191Z,15.26
2019-04-04T10:07:02.272Z,15.32
2019-04-04T10:09:15.535Z,15.38
2019-04-04T10:11:18.434Z,15.48
2019-04-04T10:13:25.423Z,15.55
2019-04-04T10:15:32.159Z,15.68
2019-04-04T10:17:39.934Z,15.80
2019-04-04T10:19:46.380Z,15.92
2019-04-04T10:21:54.339Z,15.97
2019-04-04T10:24:01.626Z,15.93
2019-04-04T10:26:08.536Z,15.90
2019-04-04T10:28:15.371Z,15.99
2019-04-04T10:30:22.240Z,16.08
2019-04-04T10:32:29.016Z,16.08
2019-04-04T10:34:36.402Z,16.07
2019-04-04T10:36:44.615Z,16.14
2019-04-04T10:38:51.981Z,16.21
2019-04-04T10:41:00.002Z,16.21
2019-04-04T10:43:10.048Z,16.14
2019-04-04T10:45:18.273Z,16.23
2019-04-04T10:47:25.393Z,16.30
2019-04-04T10:49:32.507Z,16.46
2019-04-04T10:51:39.794Z,16.52
2019-04-04T10:53:46.791Z,16.49
2019-04-04T10:55:55.096Z,16.41
2019-04-04T10:58:02.759Z,16.50
2019-04-04T11:00:12.801Z,16.58
2019-04-04T11:02:19.981Z,16.65
2019-04-04T11:04:27.441Z,16.71
2019-04-04T11:06:34.902Z,16.73
2019-04-04T11:08:43.202Z,16.74
2019-04-04T11:10:50.355Z,16.75
2019-04-04T11:12:57.457Z,16.68
2019-04-04T11:15:05.462Z,16.59
2019-04-04T11:17:13.571Z,16.59
2019-04-04T11:19:30.609Z,16.67
2019-04-04T11:21:28.738Z,16.77
2019-04-04T11:23:58.515Z,16.83
2019-04-04T11:26:07.081Z,16.82
2019-04-04T11:28:13.910Z,16.89
2019-04-04T11:30:21.086Z,16.96
2019-04-04T11:32:29.722Z,17.00
2019-04-04T11:34:36.928Z,17.12
2019-04-04T11:36:45.281Z,17.22
2019-04-04T11:38:53.941Z,17.33
2019-04-04T11:41:00.613Z,17.31
2019-04-04T11:43:08.731Z,17.36
2019-04-04T11:45:17.029Z,17.34
2019-04-04T11:47:26.271Z,17.34
2019-04-04T11:49:33.417Z,17.38
2019-04-04T11:51:40.460Z,17.35
2019-04-04T11:53:48.371Z,17.36
2019-04-04T11:55:54.980Z,17.46
2019-04-04T11:58:03.601Z,17.54
2019-04-04T12:00:12.343Z,17.46
2019-04-04T12:02:19.194Z,17.47
2019-04-04T12:04:27.180Z,17.51
2019-04-04T12:06:34.151Z,17.58
2019-04-04T12:08:41.200Z,17.66
2019-04-04T12:10:49.816Z,17.63
2019-04-04T12:12:58.586Z,17.66
2019-04-04T12:15:08.871Z,17.64
2019-04-04T12:17:16.221Z,17.64
2019-04-04T12:19:24.463Z,17.76
2019-04-04T12:21:32.292Z,17.72
2019-04-04T12:23:39.625Z,17.73
2019-04-04T12:25:46.500Z,17.78
2019-04-04T12:27:55.815Z,17.85
2019-04-04T12:30:02.386Z,17.96
2019-04-04T12:32:09.348Z,18.04
2019-04-04T12:34:16.000Z,18.03
2019-04-04T12:36:24.774Z,18.13
2019-04-04T12:38:32.564Z,18.18
2019-04-04T12:40:39.527Z,18.19
2019-04-04T12:42:46.611Z,18.20
2019-04-04T12:44:53.164Z,18.23
2019-04-04T12:47:00.111Z,18.10
2019-04-04T12:49:07.271Z,18.14
2019-04-04T12:51:14.235Z,18.16
2019-04-04T12:53:21.820Z,18.20
2019-04-04T12:55:28.540Z,18.19
2019-04-04T12:57:36.101Z,18.23
2019-04-04T12:59:43.871Z,18.20
2019-04-04T13:01:51.080Z,18.23
2019-04-04T13:03:59.110Z,18.28
2019-04-04T13:06:06.290Z,18.29
2019-04-04T13:08:14.132Z,18.26
2019-04-04T13:10:32.526Z,18.25
2019-04-04T13:12:30.737Z,18.32
2019-04-04T13:14:37.709Z,18.40
2019-04-04T13:16:45.744Z,18.43
2019-04-04T13:18:52.467Z,18.49
2019-04-04T13:20:59.930Z,18.58
2019-04-04T13:23:06.949Z,18.56
2019-04-04T13:25:14.445Z,18.45
2019-04-04T13:27:21.465Z,18.46
2019-04-04T13:29:28.241Z,18.40
2019-04-04T13:31:35.379Z,18.40
2019-04-04T13:33:43.110Z,18.47
2019-04-04T13:35:50.320Z,18.56
2019-04-04T13:37:58.869Z,18.44
2019-04-04T13:40:08.242Z,18.42
2019-04-04T13:42:15.611Z,18.40
2019-04-04T13:44:25.236Z,18.48
2019-04-04T13:46:32.562Z,18.52
2019-04-04T13:48:43.196Z,18.57
2019-04-04T13:50:48.972Z,18.61
2019-04-04T13:52:57.849Z,18.52
2019-04-04T13:55:06.349Z,18.51
2019-04-04T13:59:27.775Z,18.50
2019-04-04T14:01:34.919Z,18.52
2019-04-04T14:03:42.150Z,18.43
2019-04-04T14:05:50.157Z,18.39
2019-04-04T14:08:00.255Z,18.32
2019-04-04T14:10:08.690Z,18.30
2019-04-04T14:12:15.434Z,18.34
2019-04-04T14:14:22.435Z,18.44
2019-04-04T14:16:29.490Z,18.40
2019-04-04T14:18:39.697Z,18.30
2019-04-04T14:21:20.278Z,18.29
2019-04-04T14:23:33.119Z,18.28
2019-04-04T14:25:42.161Z,18.18
2019-04-04T14:27:49.309Z,18.15
2019-04-04T14:29:56.607Z,18.18
2019-04-04T14:32:04.803Z,18.13
2019-04-04T14:34:12.324Z,18.07
2019-04-04T14:36:21.056Z,18.12
2019-04-04T14:38:28.309Z,18.11
2019-04-04T14:40:35.348Z,18.12
2019-04-04T14:42:42.319Z,18.09
2019-04-04T14:44:49.333Z,18.10
2019-04-04T14:46:56.262Z,18.11
2019-04-04T14:49:03.710Z,18.06
2019-04-04T14:51:10.517Z,18.03
2019-04-04T14:53:17.637Z,18.07
2019-04-04T14:55:24.547Z,18.05
2019-04-04T14:57:31.823Z,18.02
2019-04-04T14:59:39.062Z,18.00
2019-04-04T15:01:46.341Z,18.00
2019-04-04T15:03:53.193Z,18.01
2019-04-04T15:06:00.195Z,17.98
2019-04-04T15:08:08.470Z,17.94
2019-04-04T15:10:15.984Z,17.91
2019-04-04T15:12:23.497Z,17.87
2019-04-04T15:14:31.072Z,17.84
2019-04-04T15:16:38.263Z,17.83
2019-04-04T15:18:46.250Z,17.77
2019-04-04T15:20:56.951Z,17.75
2019-04-04T15:23:03.999Z,17.76
2019-04-04T15:25:11.370Z,17.75
2019-04-04T15:27:18.229Z,17.74
2019-04-04T15:29:26.000Z,17.65
2019-04-04T15:31:33.213Z,17.61
2019-04-04T15:33:40.592Z,17.60
2019-04-04T15:35:47.477Z,17.56
2019-04-04T15:37:55.067Z,17.55
2019-04-04T15:40:04.450Z,17.48
2019-04-04T15:42:14.909Z,17.44
2019-04-04T15:44:21.827Z,17.42
2019-04-04T15:46:29.456Z,17.36
2019-04-04T15:48:36.874Z,17.31
2019-04-04T15:50:44.278Z,17.27
2019-04-04T15:52:51.388Z,17.24
2019-04-04T15:54:58.495Z,17.24
2019-04-04T15:57:06.808Z,17.18
2019-04-04T15:59:15.477Z,17.15
2019-04-04T16:01:23.032Z,17.11
2019-04-04T16:03:29.965Z,17.06
2019-04-04T16:05:38.820Z,16.99
2019-04-04T16:07:47.834Z,16.93
2019-04-04T16:09:54.885Z,16.87
2019-04-04T16:12:02.352Z,16.84
2019-04-04T16:14:09.448Z,16.79
2019-04-04T16:16:16.757Z,16.73
2019-04-04T16:18:23.919Z,16.69
2019-04-04T16:20:31.321Z,16.65
2019-04-04T16:22:38.345Z,16.61
2019-04-04T16:24:45.676Z,16.59
2019-04-04T16:26:53.975Z,16.55
2019-04-04T16:29:00.932Z,16.51
2019-04-04T16:31:08.901Z,16.50
2019-04-04T16:33:15.943Z,16.44
2019-04-04T16:35:22.564Z,16.45
2019-04-04T16:37:32.171Z,16.44
2019-04-04T16:39:41.585Z,16.39
2019-04-04T16:42:01.186Z,16.32
2019-04-04T16:44:12.322Z,16.29
2019-04-04T16:46:24.454Z,16.24
2019-04-04T16:48:33.952Z,16.18
2019-04-04T16:50:48.409Z,16.13
2019-04-04T16:53:01.467Z,16.06
2019-04-04T16:55:10.099Z,15.97
2019-04-04T16:57:17.350Z,15.87
2019-04-04T16:59:24.835Z,15.77
2019-04-04T17:01:32.807Z,15.67
2019-04-04T17:03:40.106Z,15.55
2019-04-04T17:05:47.486Z,15.44
2019-04-04T17:07:59.320Z,15.39
2019-04-04T17:10:08.764Z,15.37
2019-04-04T17:12:16.446Z,15.28
2019-04-04T17:14:23.987Z,15.20
2019-04-04T17:16:32.460Z,15.15
2019-04-04T17:18:39.487Z,15.12
2019-04-04T17:20:46.890Z,15.08
2019-04-04T17:22:54.451Z,14.95
2019-04-04T17:25:03.199Z,14.89
2019-04-04T17:27:10.817Z,14.84
2019-04-04T17:29:19.490Z,14.79
2019-04-04T17:31:27.263Z,14.74
2019-04-04T17:33:35.699Z,14.69
2019-04-04T17:35:43.130Z,14.62
2019-04-04T17:37:50.764Z,14.58
2019-04-04T17:39:58.464Z,14.52
2019-04-04T17:42:06.295Z,14.50
2019-04-04T17:44:13.808Z,14.44
2019-04-04T17:46:22.200Z,14.34
2019-04-04T17:48:31.627Z,14.29
2019-04-04T17:50:38.950Z,14.28
2019-04-04T17:52:46.899Z,14.23
2019-04-04T17:54:54.649Z,14.17
2019-04-04T17:57:01.882Z,14.16
2019-04-04T17:59:10.801Z,14.10
2019-04-04T18:01:17.861Z,14.04
2019-04-04T18:03:26.293Z,13.97
2019-04-04T18:05:34.174Z,13.91
2019-04-04T18:07:41.343Z,13.84
2019-04-04T18:09:50.366Z,13.92
2019-04-04T18:11:59.530Z,13.96
2019-04-04T18:14:07.234Z,14.03
2019-04-04T18:16:16.522Z,13.99
2019-04-04T18:18:25.435Z,13.94
2019-04-04T18:20:34.853Z,13.94
2019-04-04T18:22:44.076Z,13.91
2019-04-04T18:24:52.157Z,13.88
2019-04-04T18:26:59.797Z,13.82
2019-04-04T18:29:07.078Z,13.80
2019-04-04T18:31:14.511Z,13.76
2019-04-04T18:33:21.995Z,13.83
2019-04-04T18:35:29.462Z,13.81
2019-04-04T18:37:38.138Z,13.77
2019-04-04T18:39:45.438Z,13.75
2019-04-04T18:41:53.178Z,13.70
2019-04-04T18:44:02.803Z,13.71
2019-04-04T18:46:12.885Z,13.77
2019-04-04T18:48:20.544Z,13.76
2019-04-04T18:50:27.777Z,13.71
2019-04-04T18:52:35.321Z,13.69
2019-04-04T18:54:42.798Z,13.72
2019-04-04T18:56:50.104Z,13.72
2019-04-04T18:58:57.445Z,13.71
2019-04-04T19:01:05.028Z,13.70
2019-04-04T19:03:12.537Z,13.65
2019-04-04T19:05:19.939Z,13.61
2019-04-04T19:07:38.846Z,13.63
2019-04-04T19:09:37.267Z,13.61
2019-04-04T19:11:45.018Z,13.65
2019-04-04T19:13:52.688Z,13.67
2019-04-04T19:16:00.161Z,13.67
2019-04-04T19:18:07.428Z,13.71
2019-04-04T19:20:15.529Z,13.72
2019-04-04T19:22:23.068Z,13.72
2019-04-04T19:24:30.387Z,13.67
2019-04-04T19:26:37.866Z,13.58
2019-04-04T19:28:44.938Z,13.57
2019-04-04T19:30:52.388Z,13.56
2019-04-04T19:32:59.646Z,13.61
2019-04-04T19:35:09.704Z,13.56
2019-04-04T19:37:16.984Z,13.47
2019-04-04T19:39:24.152Z,13.39
2019-04-04T19:41:32.911Z,13.38
2019-04-04T19:43:40.169Z,13.38
2019-04-04T19:45:47.406Z,13.41
2019-04-04T19:47:54.463Z,13.46
2019-04-04T19:50:01.672Z,13.42
2019-04-04T19:52:10.298Z,13.47
2019-04-04T19:54:19.502Z,13.42
2019-04-04T19:56:30.737Z,13.45
2019-04-04T19:58:40.242Z,13.47
2019-04-04T20:00:49.071Z,13.52
2019-04-04T20:02:57.419Z,13.58
2019-04-04T20:05:04.827Z,13.61
2019-04-04T20:07:12.426Z,13.60
2019-04-04T20:09:21.369Z,13.62
2019-04-04T20:11:28.496Z,13.58
2019-04-04T20:13:36.058Z,13.56
2019-04-04T20:15:43.246Z,13.54
2019-04-04T20:17:50.880Z,13.50
2019-04-04T20:19:58.608Z,13.50
2019-04-04T20:22:06.495Z,13.51
2019-04-04T20:24:14.199Z,13.48
2019-04-04T20:26:23.792Z,13.45
2019-04-04T20:28:32.621Z,13.45
2019-04-04T20:30:41.423Z,13.44
2019-04-04T20:32:48.460Z,13.43
2019-04-04T20:34:56.572Z,13.41
2019-04-04T20:37:04.127Z,13.41
2019-04-04T20:39:12.812Z,13.37
2019-04-04T20:41:20.565Z,13.37
2019-04-04T20:43:27.734Z,13.34
2019-04-04T20:45:37.286Z,13.34
2019-04-04T20:47:44.374Z,13.30
2019-04-04T20:49:51.844Z,13.20
2019-04-04T20:51:59.296Z,13.24
2019-04-04T20:54:07.622Z,13.24
2019-04-04T20:56:15.774Z,13.22
2019-04-04T20:58:23.499Z,13.12
2019-04-04T21:00:31.850Z,13.01
2019-04-04T21:02:39.529Z,12.93
2019-04-04T21:04:46.548Z,12.91
2019-04-04T21:06:54.242Z,12.91
2019-04-04T21:09:02.045Z,12.87
2019-04-04T21:11:10.635Z,12.82
2019-04-04T21:13:17.438Z,12.76
2019-04-04T21:15:24.738Z,12.67
2019-04-04T21:17:32.842Z,12.58
2019-04-04T21:19:39.795Z,12.50
2019-04-04T21:21:47.225Z,12.45
2019-04-04T21:23:53.890Z,12.40
2019-04-04T21:26:07.816Z,12.35
2019-04-04T21:28:19.051Z,12.31
2019-04-04T21:30:26.239Z,12.30
2019-04-04T21:32:33.962Z,12.21
2019-04-04T21:34:41.254Z,12.13
2019-04-04T21:36:48.537Z,12.09
2019-04-04T21:38:55.573Z,12.06
2019-04-04T21:41:02.345Z,12.03
2019-04-04T21:43:11.424Z,11.98
2019-04-04T21:45:18.995Z,11.93
2019-04-04T21:47:26.012Z,11.83
2019-04-04T21:49:33.121Z,11.80
2019-04-04T21:51:39.743Z,11.81
2019-04-04T21:53:47.235Z,11.77
2019-04-04T21:55:58.460Z,11.75
2019-04-04T21:58:07.158Z,11.80
2019-04-04T22:00:15.315Z,11.75
2019-04-04T22:02:23.706Z,11.66
2019-04-04T22:04:30.742Z,11.67
2019-04-04T22:06:37.577Z,11.61
2019-04-04T22:08:50.054Z,11.63
2019-04-04T22:10:57.244Z,11.60
2019-04-04T22:13:04.331Z,11.61
2019-04-04T22:15:11.719Z,11.54
2019-04-04T22:17:19.893Z,11.49
2019-04-04T22:19:26.490Z,11.49
2019-04-04T22:21:33.688Z,11.45
2019-04-04T22:23:42.616Z,11.45
2019-04-04T22:25:49.677Z,11.41
2019-04-04T22:27:56.636Z,11.39
2019-04-04T22:30:04.465Z,11.35
2019-04-04T22:32:11.474Z,11.34
2019-04-04T22:34:18.632Z,11.27
2019-04-04T22:36:25.243Z,11.18
2019-04-04T22:38:32.123Z,11.16
2019-04-04T22:40:39.078Z,11.11
2019-04-04T22:42:45.916Z,11.11
2019-04-04T22:44:53.669Z,11.06
2019-04-04T22:47:02.116Z,11.02
2019-04-04T22:49:08.880Z,11.02
2019-04-04T22:51:15.855Z,10.96
2019-04-04T22:53:22.956Z,10.89
2019-04-04T22:55:30.241Z,10.90
2019-04-04T22:57:37.067Z,10.92
2019-04-04T22:59:43.926Z,10.87
2019-04-04T23:01:50.768Z,10.83
2019-04-04T23:03:57.834Z,10.82
2019-04-04T23:06:04.931Z,10.82
2019-04-04T23:08:12.143Z,10.80
2019-04-04T23:10:18.736Z,10.76
2019-04-04T23:12:26.044Z,10.74
2019-04-04T23:14:32.673Z,10.68
2019-04-04T23:16:39.700Z,10.61
2019-04-04T23:18:46.765Z,10.56
2019-04-04T23:21:03.227Z,10.58
2019-04-04T23:23:10.018Z,10.58
2019-04-04T23:25:17.908Z,10.54
2019-04-04T23:27:32.307Z,10.50
2019-04-04T23:29:39.106Z,10.40
2019-04-04T23:31:46.467Z,10.42
2019-04-04T23:33:53.654Z,10.38
2019-04-04T23:36:00.912Z,10.35
2019-04-04T23:38:08.067Z,10.26
2019-04-04T23:40:15.000Z,10.19
2019-04-04T23:42:22.037Z,10.13
2019-04-04T23:44:28.877Z,10.12
2019-04-04T23:46:35.745Z,10.11
2019-04-04T23:48:42.219Z,10.11
2019-04-04T23:50:49.370Z,10.03
2019-04-04T23:52:55.970Z,10.03
2019-04-04T23:55:02.796Z,9.96
2019-04-04T23:57:09.490Z,9.94
2019-04-04T23:59:16.206Z,9.90
